createdAt,value
2018-11-10T00:00:40.273Z,83.50
2018-11-10T00:01:44.341Z,83.50
2018-11-10T00:02:49.404Z,83.40
2018-11-10T00:03:53.455Z,83.40
2018-11-10T00:04:57.426Z,83.10
2018-11-10T00:06:01.474Z,83.10
2018-11-10T00:07:05.499Z,83.10
2018-11-10T00:08:09.599Z,83.10
2018-11-10T00:09:13.660Z,83.00
2018-11-10T00:10:18.617Z,83.00
2018-11-10T00:11:27.580Z,83.00
2018-11-10T00:12:31.553Z,83.00
2018-11-10T00:13:35.514Z,83.80
2018-11-10T00:14:39.493Z,83.10
2018-11-10T00:15:43.485Z,83.10
2018-11-10T00:16:47.466Z,83.20
2018-11-10T00:17:51.423Z,83.20
2018-11-10T00:18:55.500Z,83.20
2018-11-10T00:20:01.518Z,83.10
2018-11-10T00:21:05.548Z,83.10
2018-11-10T00:22:09.528Z,83.10
2018-11-10T00:23:13.506Z,83.20
2018-11-10T00:24:17.490Z,83.10
2018-11-10T00:25:21.490Z,83.10
2018-11-10T00:26:25.450Z,83.00
2018-11-10T00:27:29.522Z,82.90
2018-11-10T00:28:33.616Z,83.00
2018-11-10T00:29:37.679Z,83.00
2018-11-10T00:30:41.685Z,83.00
2018-11-10T00:31:45.735Z,83.30
2018-11-10T00:32:49.751Z,83.00
2018-11-10T00:33:53.834Z,83.00
2018-11-10T00:34:57.846Z,83.00
2018-11-10T00:36:01.963Z,83.10
2018-11-10T00:37:06.243Z,83.00
2018-11-10T00:38:10.217Z,83.00
2018-11-10T00:39:14.264Z,83.00
2018-11-10T00:40:18.405Z,83.00
2018-11-10T00:41:22.348Z,83.00
2018-11-10T00:42:26.565Z,83.00
2018-11-10T00:43:30.583Z,83.00
2018-11-10T00:44:34.751Z,82.80
2018-11-10T00:45:38.784Z,83.00
2018-11-10T00:46:42.873Z,83.20
2018-11-10T00:47:46.860Z,83.60
2018-11-10T00:48:50.935Z,83.70
2018-11-10T00:49:54.929Z,83.60
2018-11-10T00:50:58.991Z,83.70
2018-11-10T00:52:03.095Z,84.10
2018-11-10T00:53:07.123Z,84.20
2018-11-10T00:54:11.291Z,84.50
2018-11-10T00:55:15.305Z,84.20
2018-11-10T00:56:20.513Z,84.40
2018-11-10T00:57:24.699Z,84.60
2018-11-10T00:58:28.731Z,84.80
2018-11-10T00:59:32.823Z,85.10
2018-11-10T01:00:36.811Z,85.00
2018-11-10T01:01:40.846Z,85.40
2018-11-10T01:02:45.375Z,85.60
2018-11-10T01:03:49.395Z,85.90
2018-11-10T01:04:53.453Z,86.10
2018-11-10T01:05:57.546Z,86.20
2018-11-10T01:07:03.583Z,86.70
2018-11-10T01:08:07.646Z,86.90
2018-11-10T01:09:11.604Z,87.30
2018-11-10T01:10:15.553Z,87.70
2018-11-10T01:11:19.520Z,87.80
2018-11-10T01:12:23.507Z,88.10
2018-11-10T01:13:27.582Z,88.10
2018-11-10T01:14:31.661Z,88.00
2018-11-10T01:15:35.605Z,88.30
2018-11-10T01:16:39.696Z,88.20
2018-11-10T01:17:51.372Z,88.50
2018-11-10T01:18:55.338Z,88.80
2018-11-10T01:19:59.311Z,88.80
2018-11-10T01:21:03.379Z,88.90
2018-11-10T01:22:07.580Z,89.30
2018-11-10T01:23:11.562Z,89.20
2018-11-10T01:24:15.515Z,89.70
2018-11-10T01:25:19.479Z,89.90
2018-11-10T01:26:23.588Z,89.90
2018-11-10T01:27:27.668Z,90.00
2018-11-10T01:28:31.648Z,90.30
2018-11-10T01:29:35.679Z,90.10
2018-11-10T01:30:39.812Z,90.00
2018-11-10T01:31:47.721Z,90.10
2018-11-10T01:32:51.686Z,90.50
2018-11-10T01:33:55.649Z,90.10
2018-11-10T01:34:59.614Z,90.10
2018-11-10T01:36:03.655Z,90.20
2018-11-10T01:37:07.623Z,90.40
2018-11-10T01:38:11.587Z,90.30
2018-11-10T01:39:15.591Z,90.10
2018-11-10T01:40:19.566Z,90.20
2018-11-10T01:41:23.658Z,90.40
2018-11-10T01:42:27.799Z,90.40
2018-11-10T01:43:31.759Z,90.50
2018-11-10T01:44:35.709Z,90.20
2018-11-10T01:45:39.673Z,90.50
2018-11-10T01:46:43.697Z,90.80
2018-11-10T01:47:48.099Z,90.60
2018-11-10T01:48:52.105Z,90.70
2018-11-10T01:49:56.079Z,90.60
2018-11-10T01:51:00.062Z,90.90
2018-11-10T01:52:04.135Z,90.60
2018-11-10T01:53:08.129Z,90.60
2018-11-10T01:54:12.163Z,90.70
2018-11-10T01:55:16.171Z,90.60
2018-11-10T01:56:24.839Z,90.70
2018-11-10T01:57:28.796Z,90.50
2018-11-10T01:58:32.777Z,90.60
2018-11-10T01:59:36.759Z,90.80
2018-11-10T02:00:40.728Z,90.80
2018-11-10T02:01:44.834Z,90.90
2018-11-10T02:02:49.114Z,91.10
2018-11-10T02:03:53.183Z,91.20
2018-11-10T02:04:57.184Z,91.30
2018-11-10T02:06:01.256Z,91.30
2018-11-10T02:07:05.392Z,91.50
2018-11-10T02:08:09.486Z,91.50
2018-11-10T02:09:13.624Z,91.80
2018-11-10T02:10:17.680Z,92.10
2018-11-10T02:11:21.648Z,92.10
2018-11-10T02:12:25.836Z,92.20
2018-11-10T02:13:29.787Z,92.30
2018-11-10T02:14:33.747Z,92.50
2018-11-10T02:15:37.738Z,92.40
2018-11-10T02:16:41.725Z,92.40
2018-11-10T02:17:48.434Z,92.60
2018-11-10T02:18:52.422Z,92.70
2018-11-10T02:19:56.401Z,92.70
2018-11-10T02:21:00.509Z,92.80
2018-11-10T02:22:05.704Z,92.70
2018-11-10T02:23:09.803Z,92.90
2018-11-10T02:24:13.779Z,92.90
2018-11-10T02:25:17.795Z,92.90
2018-11-10T02:26:21.994Z,93.00
2018-11-10T02:27:26.617Z,93.20
2018-11-10T02:28:30.803Z,93.00
2018-11-10T02:29:34.863Z,93.00
2018-11-10T02:30:38.927Z,93.20
2018-11-10T02:31:43.033Z,93.40
2018-11-10T02:32:47.121Z,93.10
2018-11-10T02:33:51.099Z,93.10
2018-11-10T02:35:04.339Z,93.10
2018-11-10T02:36:08.385Z,93.20
2018-11-10T02:37:12.429Z,93.20
2018-11-10T02:38:16.519Z,93.10
2018-11-10T02:39:26.232Z,93.10
2018-11-10T02:40:30.199Z,93.20
2018-11-10T02:41:34.248Z,93.10
2018-11-10T02:42:38.287Z,93.20
2018-11-10T02:43:42.469Z,93.20
2018-11-10T02:44:46.583Z,93.10
2018-11-10T02:45:50.585Z,92.90
2018-11-10T02:46:54.559Z,93.00
2018-11-10T02:47:58.612Z,92.80
2018-11-10T02:49:02.572Z,92.60
2018-11-10T02:50:07.596Z,92.70
2018-11-10T02:51:11.574Z,92.80
2018-11-10T02:52:15.535Z,92.80
2018-11-10T02:53:19.523Z,92.70
2018-11-10T02:54:23.530Z,93.10
2018-11-10T02:55:27.688Z,92.80
2018-11-10T02:56:31.650Z,92.70
2018-11-10T02:57:35.616Z,92.80
2018-11-10T02:58:39.800Z,92.80
2018-11-10T02:59:43.771Z,92.80
2018-11-10T03:00:47.720Z,92.60
2018-11-10T03:01:51.892Z,92.70
2018-11-10T03:02:55.861Z,92.70
2018-11-10T03:04:00.027Z,92.70
2018-11-10T03:05:04.054Z,92.80
2018-11-10T03:06:08.033Z,92.90
2018-11-10T03:07:12.002Z,93.00
2018-11-10T03:08:16.080Z,92.70
2018-11-10T03:09:20.168Z,92.90
2018-11-10T03:10:24.324Z,93.10
2018-11-10T03:11:30.398Z,92.90
2018-11-10T03:12:34.389Z,92.80
2018-11-10T03:13:38.512Z,93.20
2018-11-10T03:14:42.592Z,92.90
2018-11-10T03:15:46.556Z,92.70
2018-11-10T03:16:50.647Z,92.70
2018-11-10T03:17:55.652Z,92.80
2018-11-10T03:18:59.625Z,92.90
2018-11-10T03:20:04.117Z,93.00
2018-11-10T03:21:08.193Z,93.10
2018-11-10T03:22:12.257Z,93.00
2018-11-10T03:23:16.221Z,93.00
2018-11-10T03:24:20.184Z,93.00
2018-11-10T03:25:24.225Z,92.90
2018-11-10T03:26:28.277Z,93.00
2018-11-10T03:27:32.245Z,93.10
2018-11-10T03:28:36.397Z,93.10
2018-11-10T03:29:40.373Z,93.10
2018-11-10T03:30:44.357Z,93.00
2018-11-10T03:31:49.452Z,93.10
2018-11-10T03:32:53.504Z,93.20
2018-11-10T03:33:57.804Z,93.30
2018-11-10T03:35:01.979Z,93.20
2018-11-10T03:36:05.932Z,93.30
2018-11-10T03:37:09.892Z,93.50
2018-11-10T03:38:13.870Z,93.50
2018-11-10T03:39:17.842Z,93.40
2018-11-10T03:40:21.978Z,93.40
2018-11-10T03:41:26.048Z,93.40
2018-11-10T03:42:30.027Z,93.40
2018-11-10T03:43:34.008Z,93.50
2018-11-10T03:44:37.970Z,93.50
2018-11-10T03:45:41.974Z,93.80
2018-11-10T03:46:45.925Z,93.80
2018-11-10T03:47:53.724Z,93.90
2018-11-10T03:48:57.792Z,93.80
2018-11-10T03:50:01.699Z,93.70
2018-11-10T03:51:05.669Z,93.70
2018-11-10T03:52:09.856Z,93.80
2018-11-10T03:53:13.840Z,93.90
2018-11-10T03:54:17.821Z,93.90
2018-11-10T03:55:21.844Z,94.00
2018-11-10T03:56:25.922Z,94.00
2018-11-10T03:57:30.460Z,94.00
2018-11-10T03:58:34.602Z,94.10
2018-11-10T03:59:38.629Z,94.10
2018-11-10T04:00:42.708Z,94.00
2018-11-10T04:01:46.776Z,94.00
2018-11-10T04:02:50.845Z,94.00
2018-11-10T04:03:54.822Z,93.90
2018-11-10T04:04:58.894Z,94.00
2018-11-10T04:06:02.888Z,94.00
2018-11-10T04:07:06.977Z,94.10
2018-11-10T04:08:10.947Z,94.10
2018-11-10T04:09:15.049Z,94.10
2018-11-10T04:10:19.057Z,94.10
2018-11-10T04:11:23.030Z,94.10
2018-11-10T04:12:26.980Z,94.20
2018-11-10T04:13:31.611Z,94.30
2018-11-10T04:14:35.675Z,94.30
2018-11-10T04:15:44.645Z,94.30
2018-11-10T04:16:48.615Z,94.40
2018-11-10T04:17:52.590Z,94.30
2018-11-10T04:18:56.545Z,94.20
2018-11-10T04:20:01.734Z,94.30
2018-11-10T04:21:05.838Z,94.30
2018-11-10T04:22:09.902Z,94.20
2018-11-10T04:23:13.897Z,94.20
2018-11-10T04:24:17.856Z,94.30
2018-11-10T04:25:21.840Z,94.40
2018-11-10T04:26:25.930Z,94.30
2018-11-10T04:27:30.257Z,94.40
2018-11-10T04:28:34.271Z,94.40
2018-11-10T04:29:38.379Z,94.40
2018-11-10T04:30:42.344Z,94.20
2018-11-10T04:31:46.348Z,94.50
2018-11-10T04:32:50.309Z,94.40
2018-11-10T04:33:54.314Z,94.50
2018-11-10T04:34:58.302Z,94.50
2018-11-10T04:36:02.294Z,94.40
2018-11-10T04:37:06.372Z,94.50
2018-11-10T04:38:10.392Z,94.50
2018-11-10T04:39:14.432Z,94.50
2018-11-10T04:40:18.396Z,94.50
2018-11-10T04:41:22.440Z,94.50
2018-11-10T04:42:26.907Z,94.40
2018-11-10T04:43:30.853Z,94.50
2018-11-10T04:44:34.820Z,94.50
2018-11-10T04:45:38.775Z,94.50
2018-11-10T04:46:42.785Z,94.50
2018-11-10T04:47:46.798Z,94.90
2018-11-10T04:48:50.774Z,94.50
2018-11-10T04:49:54.784Z,94.50
2018-11-10T04:50:58.754Z,94.60
2018-11-10T04:52:02.781Z,94.50
2018-11-10T04:53:06.924Z,94.60
2018-11-10T04:54:16.166Z,94.50
2018-11-10T04:55:20.148Z,94.80
2018-11-10T04:56:24.122Z,94.70
2018-11-10T04:57:28.073Z,94.50
2018-11-10T04:58:32.163Z,94.60
2018-11-10T04:59:36.284Z,94.60
2018-11-10T05:00:40.351Z,94.60
2018-11-10T05:01:44.563Z,94.60
2018-11-10T05:02:48.556Z,94.50
2018-11-10T05:03:52.603Z,94.60
2018-11-10T05:04:56.555Z,94.70
2018-11-10T05:06:00.561Z,94.60
2018-11-10T05:07:04.993Z,94.60
2018-11-10T05:08:08.966Z,94.70
2018-11-10T05:09:12.937Z,94.80
2018-11-10T05:10:16.921Z,94.80
2018-11-10T05:11:20.963Z,94.90
2018-11-10T05:12:24.925Z,94.80
2018-11-10T05:13:28.971Z,94.80
2018-11-10T05:14:32.949Z,94.80
2018-11-10T05:15:36.935Z,94.90
2018-11-10T05:16:40.939Z,95.20
2018-11-10T05:17:44.955Z,94.90
2018-11-10T05:18:48.933Z,94.90
2018-11-10T05:19:53.076Z,94.90
2018-11-10T05:20:57.167Z,94.80
2018-11-10T05:22:01.200Z,94.80
2018-11-10T05:23:05.332Z,94.70
2018-11-10T05:24:09.314Z,94.60
2018-11-10T05:25:13.296Z,94.60
2018-11-10T05:26:17.284Z,94.50
2018-11-10T05:27:21.273Z,94.40
2018-11-10T05:28:25.226Z,94.40
2018-11-10T05:29:29.300Z,94.50
2018-11-10T05:30:33.328Z,94.50
2018-11-10T05:31:37.620Z,94.50
2018-11-10T05:32:41.589Z,94.50
2018-11-10T05:33:45.553Z,94.30
2018-11-10T05:34:49.684Z,94.30
2018-11-10T05:35:53.788Z,94.20
2018-11-10T05:36:57.880Z,94.30
2018-11-10T05:38:01.838Z,94.20
2018-11-10T05:39:07.686Z,94.20
2018-11-10T05:40:11.956Z,94.20
2018-11-10T05:41:16.177Z,94.20
2018-11-10T05:42:20.157Z,94.20
2018-11-10T05:43:24.113Z,94.20
2018-11-10T05:44:28.083Z,94.20
2018-11-10T05:45:35.412Z,94.30
2018-11-10T05:46:39.384Z,94.10
2018-11-10T05:47:43.393Z,94.30
2018-11-10T05:48:47.381Z,94.40
2018-11-10T05:49:51.369Z,94.50
2018-11-10T05:50:55.418Z,94.30
2018-11-10T05:51:59.369Z,94.30
2018-11-10T05:53:03.479Z,94.10
2018-11-10T05:54:07.767Z,94.20
2018-11-10T05:55:11.855Z,94.20
2018-11-10T05:56:15.931Z,94.40
2018-11-10T05:57:20.021Z,94.50
2018-11-10T05:58:23.903Z,94.30
2018-11-10T05:59:32.519Z,94.20
2018-11-10T06:00:36.742Z,94.10
2018-11-10T06:01:40.843Z,94.10
2018-11-10T06:02:44.933Z,94.10
2018-11-10T06:03:48.903Z,94.10
2018-11-10T06:04:52.945Z,94.00
2018-11-10T06:05:57.068Z,94.10
2018-11-10T06:07:01.065Z,94.00
2018-11-10T06:08:05.321Z,94.00
2018-11-10T06:09:10.966Z,93.90
2018-11-10T06:10:15.056Z,94.00
2018-11-10T06:11:18.883Z,93.90
2018-11-10T06:12:22.882Z,94.00
2018-11-10T06:13:26.877Z,93.90
2018-11-10T06:14:30.935Z,94.00
2018-11-10T06:15:34.895Z,93.90
2018-11-10T06:16:38.894Z,93.80
2018-11-10T06:17:42.852Z,93.80
2018-11-10T06:18:46.983Z,93.80
2018-11-10T06:19:50.897Z,93.80
2018-11-10T06:20:55.084Z,93.80
2018-11-10T06:21:59.140Z,93.90
2018-11-10T06:23:03.137Z,93.90
2018-11-10T06:24:07.202Z,93.80
2018-11-10T06:25:11.833Z,93.70
2018-11-10T06:26:15.888Z,93.70
2018-11-10T06:27:19.805Z,93.70
2018-11-10T06:28:24.032Z,93.70
2018-11-10T06:29:28.011Z,93.70
2018-11-10T06:30:31.979Z,93.70
2018-11-10T06:31:35.988Z,93.70
2018-11-10T06:32:45.596Z,93.70
2018-11-10T06:33:49.652Z,93.70
2018-11-10T06:34:53.760Z,93.60
2018-11-10T06:35:57.746Z,93.40
2018-11-10T06:37:01.972Z,93.40
2018-11-10T06:38:06.278Z,93.50
2018-11-10T06:39:11.321Z,93.50
2018-11-10T06:40:15.401Z,93.40
2018-11-10T06:41:19.591Z,93.50
2018-11-10T06:42:23.551Z,93.50
2018-11-10T06:43:27.681Z,93.50
2018-11-10T06:44:31.656Z,93.50
2018-11-10T06:45:35.634Z,93.60
2018-11-10T06:46:39.741Z,93.60
2018-11-10T06:47:43.823Z,93.60
2018-11-10T06:48:47.988Z,93.60
2018-11-10T06:49:51.939Z,93.50
2018-11-10T06:50:56.031Z,93.50
2018-11-10T06:52:00.054Z,93.30
2018-11-10T06:53:04.160Z,93.30
2018-11-10T06:54:08.170Z,93.30
2018-11-10T06:55:12.251Z,93.40
2018-11-10T06:56:16.249Z,93.20
2018-11-10T06:57:20.237Z,93.30
2018-11-10T06:58:24.337Z,93.30
2018-11-10T06:59:28.307Z,93.30
2018-11-10T07:00:32.322Z,93.30
2018-11-10T07:01:36.426Z,93.30
2018-11-10T07:02:40.980Z,93.40
2018-11-10T07:03:44.935Z,93.20
2018-11-10T07:04:49.037Z,93.20
2018-11-10T07:05:53.154Z,93.20
2018-11-10T07:06:57.274Z,93.30
2018-11-10T07:08:01.251Z,93.40
2018-11-10T07:09:08.088Z,93.50
2018-11-10T07:10:12.246Z,93.50
2018-11-10T07:11:16.213Z,93.60
2018-11-10T07:12:20.268Z,93.60
2018-11-10T07:13:24.256Z,93.60
2018-11-10T07:14:28.220Z,93.50
2018-11-10T07:15:32.240Z,93.50
2018-11-10T07:16:36.360Z,93.60
2018-11-10T07:17:40.387Z,93.60
2018-11-10T07:18:44.410Z,93.60
2018-11-10T07:19:48.404Z,93.70
2018-11-10T07:20:52.446Z,93.60
2018-11-10T07:21:56.451Z,93.70
2018-11-10T07:23:00.729Z,93.70
2018-11-10T07:24:05.141Z,93.70
2018-11-10T07:25:09.844Z,93.50
2018-11-10T07:26:13.815Z,93.50
2018-11-10T07:27:17.880Z,93.40
2018-11-10T07:28:21.909Z,93.40
2018-11-10T07:29:25.895Z,93.40
2018-11-10T07:30:29.879Z,93.30
2018-11-10T07:31:33.882Z,93.20
2018-11-10T07:32:38.025Z,93.10
2018-11-10T07:33:42.543Z,93.00
2018-11-10T07:34:46.600Z,93.10
2018-11-10T07:35:50.709Z,93.00
2018-11-10T07:36:54.744Z,93.00
2018-11-10T07:37:58.731Z,93.10
2018-11-10T07:39:02.746Z,93.10
2018-11-10T07:40:08.529Z,93.10
2018-11-10T07:41:12.627Z,93.00
2018-11-10T07:42:16.823Z,92.70
2018-11-10T07:43:20.910Z,92.80
2018-11-10T07:44:27.069Z,92.70
2018-11-10T07:45:31.096Z,92.70
2018-11-10T07:46:35.074Z,92.70
2018-11-10T07:47:39.067Z,93.00
2018-11-10T07:48:43.109Z,92.80
2018-11-10T07:49:47.107Z,92.70
2018-11-10T07:50:51.152Z,92.70
2018-11-10T07:51:55.162Z,92.80
2018-11-10T07:52:59.191Z,92.90
2018-11-10T07:54:03.307Z,92.80
2018-11-10T07:55:08.227Z,92.80
2018-11-10T07:56:12.210Z,92.70
2018-11-10T07:57:16.336Z,92.70
2018-11-10T07:58:20.412Z,92.80
2018-11-10T07:59:24.443Z,92.80
2018-11-10T08:00:28.542Z,92.80
2018-11-10T08:01:32.528Z,92.90
2018-11-10T08:02:36.514Z,92.80
2018-11-10T08:03:40.608Z,92.70
2018-11-10T08:04:44.582Z,92.60
2018-11-10T08:05:48.566Z,92.60
2018-11-10T08:06:52.576Z,92.50
2018-11-10T08:07:56.604Z,92.50
2018-11-10T08:09:00.721Z,92.40
2018-11-10T08:10:05.744Z,92.40
2018-11-10T08:11:09.822Z,92.30
2018-11-10T08:12:13.922Z,92.40
2018-11-10T08:13:17.968Z,92.30
2018-11-10T08:14:21.992Z,92.10
2018-11-10T08:15:25.969Z,92.10
2018-11-10T08:16:29.964Z,91.90
2018-11-10T08:17:33.985Z,92.00
2018-11-10T08:18:38.006Z,92.10
2018-11-10T08:19:41.973Z,92.00
2018-11-10T08:20:45.991Z,92.10
2018-11-10T08:21:49.996Z,92.00
2018-11-10T08:22:54.037Z,92.00
2018-11-10T08:23:58.129Z,92.00
2018-11-10T08:25:02.183Z,92.00
2018-11-10T08:26:06.256Z,92.20
2018-11-10T08:27:10.332Z,91.80
2018-11-10T08:28:14.330Z,91.90
2018-11-10T08:29:18.374Z,91.90
2018-11-10T08:30:22.371Z,91.80
2018-11-10T08:31:26.475Z,91.90
2018-11-10T08:32:30.479Z,91.80
2018-11-10T08:33:34.489Z,91.80
2018-11-10T08:34:38.517Z,91.80
2018-11-10T08:35:42.529Z,91.80
2018-11-10T08:36:46.629Z,91.60
2018-11-10T08:37:50.658Z,91.40
2018-11-10T08:38:54.656Z,91.40
2018-11-10T08:39:58.783Z,91.40
2018-11-10T08:41:03.857Z,91.20
2018-11-10T08:42:07.844Z,91.30
2018-11-10T08:43:11.890Z,91.40
2018-11-10T08:44:15.968Z,91.30
2018-11-10T08:45:19.986Z,91.00
2018-11-10T08:46:23.983Z,91.00
2018-11-10T08:47:27.999Z,91.10
2018-11-10T08:48:32.028Z,91.10
2018-11-10T08:49:36.148Z,91.00
2018-11-10T08:50:40.152Z,91.00
2018-11-10T08:51:44.404Z,90.70
2018-11-10T08:52:48.372Z,90.80
2018-11-10T08:53:52.337Z,90.60
2018-11-10T08:54:56.335Z,90.50
2018-11-10T08:56:00.516Z,90.20
2018-11-10T08:57:04.694Z,90.60
2018-11-10T08:58:09.190Z,90.60
2018-11-10T08:59:13.299Z,90.70
2018-11-10T09:00:17.284Z,90.50
2018-11-10T09:01:21.261Z,90.60
2018-11-10T09:02:25.416Z,90.60
2018-11-10T09:03:30.653Z,90.40
2018-11-10T09:04:34.836Z,90.60
2018-11-10T09:05:38.818Z,90.50
2018-11-10T09:06:43.008Z,90.40
2018-11-10T09:07:46.974Z,90.30
2018-11-10T09:08:50.975Z,90.80
2018-11-10T09:09:55.040Z,90.40
2018-11-10T09:10:59.128Z,90.70
2018-11-10T09:12:03.157Z,90.50
2018-11-10T09:13:07.357Z,90.60
2018-11-10T09:14:11.563Z,90.50
2018-11-10T09:15:16.353Z,90.70
2018-11-10T09:16:20.311Z,90.70
2018-11-10T09:17:24.375Z,90.70
2018-11-10T09:18:28.596Z,90.70
2018-11-10T09:19:32.620Z,90.70
2018-11-10T09:20:38.834Z,90.60
2018-11-10T09:21:42.976Z,90.70
2018-11-10T09:22:46.932Z,90.70
2018-11-10T09:23:51.010Z,90.80
2018-11-10T09:24:55.005Z,90.80
2018-11-10T09:25:59.022Z,91.00
2018-11-10T09:27:03.167Z,91.10
2018-11-10T09:28:07.179Z,90.90
2018-11-10T09:29:11.280Z,91.20
2018-11-10T09:30:16.581Z,90.80
2018-11-10T09:31:21.791Z,90.90
2018-11-10T09:32:25.893Z,90.90
2018-11-10T09:33:29.897Z,90.80
2018-11-10T09:34:33.904Z,90.80
2018-11-10T09:35:37.984Z,90.90
2018-11-10T09:36:41.990Z,90.80
2018-11-10T09:37:46.109Z,90.60
2018-11-10T09:38:50.092Z,90.60
2018-11-10T09:39:54.186Z,90.50
2018-11-10T09:40:58.184Z,90.30
2018-11-10T09:42:02.335Z,90.40
2018-11-10T09:43:06.357Z,90.30
2018-11-10T09:44:10.335Z,90.20
2018-11-10T09:45:15.742Z,90.10
2018-11-10T09:46:19.837Z,89.90
2018-11-10T09:47:23.847Z,89.40
2018-11-10T09:48:27.852Z,89.30
2018-11-10T09:49:31.834Z,89.30
2018-11-10T09:50:35.903Z,89.30
2018-11-10T09:51:39.922Z,89.20
2018-11-10T09:52:44.396Z,89.20
2018-11-10T09:53:48.464Z,89.10
2018-11-10T09:54:52.556Z,89.50
2018-11-10T09:55:56.573Z,89.30
2018-11-10T09:57:00.689Z,88.80
2018-11-10T09:58:04.701Z,88.40
2018-11-10T09:59:08.879Z,88.20
2018-11-10T10:00:15.467Z,87.60
2018-11-10T10:01:19.706Z,87.60
2018-11-10T10:02:24.107Z,87.80
2018-11-10T10:03:27.839Z,88.40
2018-11-10T10:04:31.833Z,87.40
2018-11-10T10:05:35.851Z,87.40
2018-11-10T10:06:39.868Z,87.30
2018-11-10T10:07:44.573Z,87.20
2018-11-10T10:08:48.693Z,87.10
2018-11-10T10:09:52.705Z,87.80
2018-11-10T10:10:56.735Z,87.10
2018-11-10T10:12:00.727Z,86.80
2018-11-10T10:13:04.954Z,86.90
2018-11-10T10:14:10.013Z,88.10
2018-11-10T10:15:15.316Z,87.00
2018-11-10T10:16:19.478Z,87.40
2018-11-10T10:17:23.317Z,87.30
2018-11-10T10:18:27.319Z,87.70
2018-11-10T10:19:31.514Z,88.50
2018-11-10T10:20:35.481Z,88.00
2018-11-10T10:21:39.493Z,88.20
2018-11-10T10:22:44.264Z,88.40
2018-11-10T10:23:48.361Z,88.20
2018-11-10T10:24:53.339Z,88.20
2018-11-10T10:25:57.306Z,87.90
2018-11-10T10:27:01.338Z,88.40
2018-11-10T10:28:05.673Z,88.00
2018-11-10T10:29:09.780Z,87.90
2018-11-10T10:30:21.385Z,88.10
2018-11-10T10:31:25.367Z,88.00
2018-11-10T10:32:29.356Z,88.20
2018-11-10T10:33:33.360Z,88.20
2018-11-10T10:34:37.679Z,88.50
2018-11-10T10:35:41.580Z,88.00
2018-11-10T10:36:45.630Z,88.00
2018-11-10T10:37:51.100Z,88.00
2018-11-10T10:38:55.100Z,88.70
2018-11-10T10:39:59.087Z,88.00
2018-11-10T10:41:03.944Z,87.70
2018-11-10T10:42:07.944Z,88.00
2018-11-10T10:43:12.106Z,88.30
2018-11-10T10:44:16.209Z,87.80
2018-11-10T10:45:22.576Z,87.50
2018-11-10T10:46:26.593Z,87.80
2018-11-10T10:47:30.688Z,87.70
2018-11-10T10:48:34.873Z,87.70
2018-11-10T10:49:38.843Z,88.90
2018-11-10T10:50:44.112Z,88.20
2018-11-10T10:51:51.959Z,88.40
2018-11-10T10:52:56.072Z,88.20
2018-11-10T10:54:00.111Z,88.40
2018-11-10T10:55:04.180Z,88.50
2018-11-10T10:56:08.416Z,88.60
2018-11-10T10:57:13.708Z,87.50
2018-11-10T10:58:20.433Z,87.80
2018-11-10T10:59:28.002Z,88.30
2018-11-10T11:00:39.705Z,88.30
2018-11-10T11:02:50.269Z,87.90
2018-11-10T11:04:01.919Z,88.10
2018-11-10T11:05:13.698Z,88.40
2018-11-10T11:06:21.657Z,88.00
2018-11-10T11:07:28.941Z,88.00
2018-11-10T11:08:35.838Z,87.60
2018-11-10T11:09:39.871Z,87.90
2018-11-10T11:10:43.840Z,87.90
2018-11-10T11:11:47.911Z,88.20
2018-11-10T11:12:52.869Z,88.30
2018-11-10T11:13:56.864Z,88.20
2018-11-10T11:15:00.941Z,87.80
2018-11-10T11:16:05.472Z,88.20
2018-11-10T11:17:09.460Z,88.00
2018-11-10T11:18:13.454Z,87.40
2018-11-10T11:19:17.416Z,87.90
2018-11-10T11:20:21.400Z,87.90
2018-11-10T11:21:25.485Z,87.90
2018-11-10T11:22:29.473Z,87.90
2018-11-10T11:23:33.526Z,87.30
2018-11-10T11:24:37.964Z,87.60
2018-11-10T11:25:42.086Z,87.60
2018-11-10T11:26:46.127Z,87.40
2018-11-10T11:27:50.112Z,87.40
2018-11-10T11:28:54.124Z,87.40
2018-11-10T11:29:58.177Z,87.60
2018-11-10T11:31:02.170Z,87.50
2018-11-10T11:32:06.588Z,87.80
2018-11-10T11:33:10.685Z,87.80
2018-11-10T11:34:14.717Z,88.10
2018-11-10T11:35:18.940Z,91.20
2018-11-10T11:36:22.916Z,90.00
2018-11-10T11:37:27.015Z,87.40
2018-11-10T11:38:31.043Z,86.90
2018-11-10T11:39:35.088Z,79.50
2018-11-10T11:40:39.069Z,76.20
2018-11-10T11:41:43.123Z,73.90
2018-11-10T11:42:47.729Z,73.60
2018-11-10T11:43:51.862Z,72.90
2018-11-10T11:44:55.951Z,71.10
2018-11-10T11:45:59.984Z,71.70
2018-11-10T11:47:03.954Z,66.90
2018-11-10T11:48:08.003Z,70.70
2018-11-10T11:49:12.219Z,66.60
2018-11-10T11:50:16.739Z,69.40
2018-11-10T11:51:20.867Z,70.60
2018-11-10T11:52:24.885Z,71.50
2018-11-10T11:53:28.875Z,71.50
2018-11-10T11:54:32.865Z,67.30
2018-11-10T11:55:36.990Z,66.50
2018-11-10T11:56:41.002Z,64.30
2018-11-10T11:57:45.063Z,63.20
2018-11-10T11:58:49.113Z,62.10
2018-11-10T11:59:53.096Z,64.10
2018-11-10T12:00:57.091Z,64.60
2018-11-10T12:02:01.090Z,64.50
2018-11-10T12:03:05.077Z,66.50
2018-11-10T12:04:09.049Z,67.20
2018-11-10T12:05:14.693Z,64.50
2018-11-10T12:06:18.757Z,60.70
2018-11-10T12:07:22.735Z,64.10
2018-11-10T12:08:26.712Z,64.50
2018-11-10T12:09:30.702Z,63.50
2018-11-10T12:10:34.692Z,63.80
2018-11-10T12:11:38.678Z,64.90
2018-11-10T12:12:42.717Z,62.00
2018-11-10T12:13:46.730Z,65.30
2018-11-10T12:14:50.701Z,64.80
2018-11-10T12:15:54.711Z,68.80
2018-11-10T12:16:59.021Z,64.90
2018-11-10T12:18:03.082Z,63.80
2018-11-10T12:19:07.288Z,61.10
2018-11-10T12:20:13.564Z,59.50
2018-11-10T12:21:17.628Z,59.70
2018-11-10T12:22:21.646Z,61.60
2018-11-10T12:23:25.750Z,63.70
2018-11-10T12:24:29.766Z,65.60
2018-11-10T12:25:33.772Z,67.60
2018-11-10T12:26:37.770Z,69.30
2018-11-10T12:27:42.570Z,71.40
2018-11-10T12:28:46.588Z,73.00
2018-11-10T12:29:50.587Z,74.60
2018-11-10T12:30:54.670Z,76.30
2018-11-10T12:31:58.748Z,77.60
2018-11-10T12:33:02.710Z,78.40
2018-11-10T12:34:06.949Z,79.60
2018-11-10T12:35:12.680Z,80.60
2018-11-10T12:36:16.739Z,81.40
2018-11-10T12:37:20.713Z,82.00
2018-11-10T12:38:24.828Z,82.80
2018-11-10T12:39:29.021Z,84.30
2018-11-10T12:40:33.042Z,85.10
2018-11-10T12:41:37.158Z,85.70
2018-11-10T12:42:41.339Z,86.60
2018-11-10T12:43:45.447Z,86.40
2018-11-10T12:44:49.487Z,86.80
2018-11-10T12:45:53.647Z,87.40
2018-11-10T12:46:57.662Z,87.60
2018-11-10T12:48:01.679Z,88.30
2018-11-10T12:49:06.243Z,89.10
2018-11-10T12:50:12.534Z,88.90
2018-11-10T12:51:16.613Z,89.10
2018-11-10T12:52:20.731Z,89.50
2018-11-10T12:53:24.794Z,90.30
2018-11-10T12:54:28.775Z,90.40
2018-11-10T12:55:32.844Z,90.10
2018-11-10T12:56:36.923Z,90.20
2018-11-10T12:57:41.754Z,89.60
2018-11-10T12:58:45.769Z,90.00
2018-11-10T12:59:49.705Z,90.00
2018-11-10T13:00:53.687Z,90.10
2018-11-10T13:01:57.803Z,90.10
2018-11-10T13:03:01.970Z,90.10
2018-11-10T13:04:06.658Z,89.10
2018-11-10T13:05:11.478Z,90.00
2018-11-10T13:06:15.505Z,90.00
2018-11-10T13:07:19.652Z,90.30
2018-11-10T13:08:23.659Z,90.40
2018-11-10T13:09:27.761Z,90.30
2018-11-10T13:10:31.758Z,90.30
2018-11-10T13:11:36.057Z,90.30
2018-11-10T13:12:40.492Z,90.50
2018-11-10T13:13:44.512Z,90.50
2018-11-10T13:14:48.496Z,90.60
2018-11-10T13:15:52.497Z,90.80
2018-11-10T13:16:56.486Z,91.10
2018-11-10T13:18:00.590Z,91.20
2018-11-10T13:19:05.064Z,90.80
2018-11-10T13:20:11.582Z,91.00
2018-11-10T13:21:15.581Z,91.10
2018-11-10T13:22:19.628Z,91.00
2018-11-10T13:23:23.760Z,90.80
2018-11-10T13:24:27.764Z,90.60
2018-11-10T13:25:31.730Z,90.80
2018-11-10T13:26:35.727Z,91.00
2018-11-10T13:27:39.976Z,90.90
2018-11-10T13:28:44.060Z,90.80
2018-11-10T13:29:48.200Z,90.60
2018-11-10T13:30:52.236Z,90.90
2018-11-10T13:31:56.235Z,91.10
2018-11-10T13:33:00.212Z,91.00
2018-11-10T13:34:04.590Z,91.00
2018-11-10T13:35:09.531Z,91.20
2018-11-10T13:36:13.646Z,91.30
2018-11-10T13:37:17.663Z,91.60
2018-11-10T13:38:21.803Z,91.60
2018-11-10T13:39:25.797Z,91.70
2018-11-10T13:40:29.887Z,91.80
2018-11-10T13:41:33.882Z,91.70
2018-11-10T13:42:37.912Z,91.60
2018-11-10T13:43:41.927Z,91.70
2018-11-10T13:44:46.369Z,91.80
2018-11-10T13:45:50.384Z,92.00
2018-11-10T13:46:54.583Z,92.40
2018-11-10T13:47:58.601Z,92.40
2018-11-10T13:49:02.601Z,92.20